This is the latest recevied weather packets stored in our database for station/object KC5DAQ-24. If no packets are shown the sender has not sent any weather packets the latest 1 day(s).
| Time | Temp. | Humidity | Pressure | Rain* | Wind** | Luminosity | Snow |
|---|---|---|---|---|---|---|---|
| 1778023263 | 27.22° C | 79% | 1005.6 hPa | 0 mm | 3.13 m/s, 200° | 79 W/m² | - |
| 1778023204 | 27.22° C | 79% | 1005.6 hPa | 0 mm | 3.13 m/s, 200° | 79 W/m² | - |
| 1778023143 | 27.22° C | 79% | 1005.5 hPa | 0 mm | 3.13 m/s, 200° | 79 W/m² | - |
| 1778023083 | 27.22° C | 79% | 1005.6 hPa | 0 mm | 3.13 m/s, 200° | 79 W/m² | - |
| 1778023023 | 27.22° C | 79% | 1005.6 hPa | 0 mm | 3.13 m/s, 200° | 79 W/m² | - |
| 1778022963 | 27.22° C | 79% | 1005.7 hPa | 0 mm | 3.13 m/s, 202° | 79 W/m² | - |
| 1778022901 | 27.22° C | 79% | 1005.7 hPa | 0 mm | 4.02 m/s, 214° | 81 W/m² | - |
| 1778022843 | 27.22° C | 79% | 1005.7 hPa | 0 mm | 3.13 m/s, 209° | 83 W/m² | - |
| 1778022782 | 27.22° C | 79% | 1005.8 hPa | 0 mm | 2.68 m/s, 199° | 83 W/m² | - |
| 1778022723 | 27.78° C | 79% | 1005.7 hPa | 0 mm | 3.13 m/s, 210° | 86 W/m² | - |
| 1778022661 | 27.78° C | 79% | 1005.7 hPa | 0 mm | 3.13 m/s, 206° | 86 W/m² | - |
| 1778020923 | 27.78° C | 79% | 1005.7 hPa | 0 mm | 2.68 m/s, 226° | 216 W/m² | - |
| 1778020863 | 27.78° C | 79% | 1005.7 hPa | 0 mm | 2.68 m/s, 226° | 216 W/m² | - |
| 1778020805 | 27.78° C | 79% | 1005.6 hPa | 0 mm | 2.68 m/s, 226° | 216 W/m² | - |
| 1778020743 | 27.78° C | 79% | 1005.7 hPa | 0 mm | 2.68 m/s, 226° | 216 W/m² | - |
| 1778020684 | 27.78° C | 79% | 1005.5 hPa | 0 mm | 2.68 m/s, 226° | 216 W/m² | - |
| 1778020624 | 27.78° C | 79% | 1005.7 hPa | 0 mm | 2.68 m/s, 226° | 216 W/m² | - |
| 1778020564 | 27.78° C | 79% | 1005.7 hPa | 0 mm | 2.68 m/s, 226° | 216 W/m² | - |
| 1778020504 | 27.78° C | 79% | 1005.7 hPa | 0 mm | 2.68 m/s, 226° | 216 W/m² | - |
| 1778020443 | 27.78° C | 79% | 1005.7 hPa | 0 mm | 2.68 m/s, 226° | 216 W/m² | - |
| 1778020383 | 27.78° C | 79% | 1005.7 hPa | 0 mm | 2.68 m/s, 226° | 216 W/m² | - |
| 1778020322 | 27.78° C | 79% | 1005.7 hPa | 0 mm | 3.13 m/s, 217° | 211 W/m² | - |
| 1778020264 | 27.78° C | 79% | 1005.7 hPa | 0 mm | 2.68 m/s, 206° | 209 W/m² | - |
| 1778020203 | 27.78° C | 80% | 1005.7 hPa | 0 mm | 1.79 m/s, 151° | 222 W/m² | - |
| 1778020143 | 27.78° C | 80% | 1005.7 hPa | 0 mm | 2.24 m/s, 179° | 209 W/m² | - |
* Rain latest hour (hover to see other rain measurements)
** Current wind speed in m/s (hover to see current wind gust speed)